Station History

Weather Underground - logo

Station Historical Data
Daily Summary for July 11, 2018 Units:  English    Metric   Both
« Previous Day
Next Day »
Daily Weekly Monthly Yearly Custom
  High: Low: Average:
Temperature: 100.9 °F 67.3 °F 85.3 °F
Dew Point: 68.5 °F 55.3 °F 61.7 °F
Humidity: 78 % 23 % 49 %
Wind Speed: 3.5 mph 0.0 mph 0.9 mph
Wind Gust: 1.9 mph - -
Wind:- - SW
Pressure: 29.84 in 29.67 in -
Precipitation: 0.00 in    
Historical Graphs
 
 
Tabular Data for July 11, 2018
Time Temperature Dew Point Pressure Wind Wind Speed Wind Gust Humidity Rainfall Rate (Hourly)
00:04 76.3 °F 62.8 °F 29.82 in Calm     63 % 0.00 in
00:09 76.3 °F 63.2 °F 29.82 in Calm     64 % 0.00 in
00:14 76.1 °F 63.0 °F 29.82 in Calm     64 % 0.00 in
00:19 76.1 °F 62.6 °F 29.82 in Calm     63 % 0.00 in
00:24 76.2 °F 62.7 °F 29.82 in Calm     63 % 0.00 in
00:29 76.3 °F 62.8 °F 29.82 in Calm     63 % 0.00 in
00:34 76.2 °F 62.2 °F 29.82 in Calm     62 % 0.00 in
00:39 76.1 °F 62.6 °F 29.82 in Calm     63 % 0.00 in
00:44 75.9 °F 62.8 °F 29.82 in Calm     64 % 0.00 in
00:49 75.5 °F 62.5 °F 29.82 in Calm     64 % 0.00 in
00:54 75.3 °F 62.3 °F 29.82 in Calm     64 % 0.00 in
00:59 75.3 °F 62.3 °F 29.82 in Calm     64 % 0.00 in
01:04 75.1 °F 63.0 °F 29.82 in Calm     66 % 0.00 in
01:09 74.9 °F 63.2 °F 29.82 in Calm     67 % 0.00 in
01:14 74.8 °F 63.5 °F 29.82 in Calm     68 % 0.00 in
01:19 75.0 °F 62.9 °F 29.82 in Calm     66 % 0.00 in
01:24 75.1 °F 62.5 °F 29.82 in Calm     65 % 0.00 in
01:29 75.3 °F 60.9 °F 29.82 in Calm     61 % 0.00 in
01:34 75.4 °F 61.9 °F 29.82 in Calm     63 % 0.00 in
01:39 75.1 °F 61.6 °F 29.82 in Calm     63 % 0.00 in
01:44 74.8 °F 61.4 °F 29.82 in Calm     63 % 0.00 in
01:49 74.2 °F 60.8 °F 29.81 in Calm     63 % 0.00 in
01:54 74.0 °F 61.9 °F 29.81 in Calm     66 % 0.00 in
01:59 73.8 °F 62.2 °F 29.81 in Calm     67 % 0.00 in
02:04 73.7 °F 62.9 °F 29.81 in Calm     69 % 0.00 in
02:09 73.6 °F 62.8 °F 29.81 in Calm     69 % 0.00 in
02:14 73.5 °F 62.3 °F 29.81 in Calm     68 % 0.00 in
02:19 73.4 °F 62.6 °F 29.81 in Calm     69 % 0.00 in
02:24 73.3 °F 62.5 °F 29.81 in Calm     69 % 0.00 in
02:29 73.1 °F 62.3 °F 29.81 in Calm     69 % 0.00 in
02:34 72.8 °F 62.0 °F 29.81 in Calm     69 % 0.00 in
02:39 72.5 °F 61.7 °F 29.81 in Calm     69 % 0.00 in
02:44 72.3 °F 62.0 °F 29.81 in Calm     70 % 0.00 in
02:49 72.0 °F 61.3 °F 29.80 in Calm     69 % 0.00 in
02:54 71.9 °F 61.6 °F 29.80 in Calm     70 % 0.00 in
02:59 71.8 °F 61.5 °F 29.80 in Calm     70 % 0.00 in
03:04 71.8 °F 62.3 °F 29.80 in Calm     72 % 0.00 in
03:09 71.7 °F 63.0 °F 29.80 in Calm     74 % 0.00 in
03:14 71.4 °F 61.9 °F 29.80 in Calm     72 % 0.00 in
03:19 71.2 °F 61.3 °F 29.80 in Calm     71 % 0.00 in
03:24 71.1 °F 62.4 °F 29.80 in Calm     74 % 0.00 in
03:29 71.0 °F 61.9 °F 29.80 in Calm     73 % 0.00 in
03:34 71.0 °F 62.3 °F 29.80 in Calm     74 % 0.00 in
03:39 70.8 °F 61.3 °F 29.80 in Calm     72 % 0.00 in
03:44 70.7 °F 61.6 °F 29.80 in Calm     73 % 0.00 in
03:49 70.5 °F 61.0 °F 29.80 in Calm     72 % 0.00 in
03:54 70.5 °F 61.8 °F 29.80 in Calm     74 % 0.00 in
03:59 70.5 °F 61.4 °F 29.80 in Calm     73 % 0.00 in
04:04 70.6 °F 61.1 °F 29.80 in Calm     72 % 0.00 in
04:09 70.5 °F 61.0 °F 29.80 in Calm     72 % 0.00 in
04:14 70.3 °F 60.8 °F 29.80 in Calm     72 % 0.00 in
04:19 70.2 °F 60.7 °F 29.80 in Calm     72 % 0.00 in
04:24 70.1 °F 60.7 °F 29.80 in Calm     72 % 0.00 in
04:29 70.0 °F 60.9 °F 29.80 in Calm     73 % 0.00 in
04:34 69.9 °F 60.8 °F 29.80 in Calm     73 % 0.00 in
04:39 69.7 °F 60.7 °F 29.80 in Calm     73 % 0.00 in
04:44 69.4 °F 60.4 °F 29.80 in Calm     73 % 0.00 in
04:49 69.2 °F 60.6 °F 29.81 in Calm     74 % 0.00 in
04:54 69.1 °F 60.5 °F 29.81 in Calm     74 % 0.00 in
04:59 68.9 °F 60.3 °F 29.81 in Calm     74 % 0.00 in
05:04 68.8 °F 60.6 °F 29.81 in Calm     75 % 0.00 in
05:09 68.6 °F 60.4 °F 29.81 in Calm     75 % 0.00 in
05:14 68.5 °F 60.6 °F 29.81 in Calm     76 % 0.00 in
05:19 68.4 °F 60.5 °F 29.81 in Calm     76 % 0.00 in
05:24 68.3 °F 60.4 °F 29.81 in Calm     76 % 0.00 in
05:29 68.1 °F 60.6 °F 29.81 in Calm     77 % 0.00 in
05:34 68.0 °F 60.5 °F 29.81 in Calm     77 % 0.00 in
05:39 67.9 °F 60.4 °F 29.82 in Calm     77 % 0.00 in
05:44 67.8 °F 60.0 °F 29.82 in Calm     76 % 0.00 in
05:49 67.8 °F 60.3 °F 29.82 in Calm     77 % 0.00 in
05:54 67.7 °F 60.2 °F 29.82 in Calm     77 % 0.00 in
05:59 67.5 °F 60.0 °F 29.82 in Calm     77 % 0.00 in
06:04 67.4 °F 60.3 °F 29.82 in Calm     78 % 0.00 in
06:09 67.3 °F 60.2 °F 29.82 in Calm     78 % 0.00 in
06:14 67.4 °F 60.3 °F 29.83 in Calm     78 % 0.00 in
06:19 67.4 °F 60.3 °F 29.83 in Calm     78 % 0.00 in
06:24 67.5 °F 60.4 °F 29.83 in Calm     78 % 0.00 in
06:29 67.7 °F 60.2 °F 29.83 in SE 1.2 mph 0.1 mph 77 % 0.00 in
06:34 68.1 °F 59.9 °F 29.83 in ESE 1.2 mph 0.1 mph 75 % 0.00 in
06:39 68.4 °F 59.8 °F 29.83 in ESE 1.2 mph   74 % 0.00 in
06:44 68.8 °F 60.2 °F 29.83 in ESE 1.2 mph   74 % 0.00 in
06:49 69.2 °F 60.6 °F 29.83 in Calm     74 % 0.00 in
06:54 70.1 °F 60.7 °F 29.83 in ESE 1.2 mph   72 % 0.00 in
06:59 71.2 °F 60.9 °F 29.84 in Calm     70 % 0.00 in
07:04 72.2 °F 61.5 °F 29.83 in Calm     69 % 0.00 in
07:09 73.1 °F 61.1 °F 29.83 in Calm     66 % 0.00 in
07:14 74.2 °F 60.8 °F 29.83 in SSE 1.2 mph 0.1 mph 63 % 0.00 in
07:19 74.8 °F 60.9 °F 29.84 in SE 1.2 mph 0.1 mph 62 % 0.00 in
07:24 75.1 °F 60.7 °F 29.84 in SSE 1.2 mph 0.4 mph 61 % 0.00 in
07:29 75.4 °F 61.0 °F 29.83 in ESE 1.2 mph 0.6 mph 61 % 0.00 in
07:34 75.8 °F 61.4 °F 29.84 in ESE 1.2 mph   61 % 0.00 in
07:39 76.6 °F 62.1 °F 29.84 in SE 2.0 mph 0.5 mph 61 % 0.00 in
07:44 77.1 °F 61.7 °F 29.84 in SE 1.2 mph 0.5 mph 59 % 0.00 in
07:49 77.6 °F 61.7 °F 29.84 in Calm     58 % 0.00 in
07:54 78.1 °F 61.1 °F 29.84 in ENE 2.3 mph 0.3 mph 56 % 0.00 in
07:59 78.5 °F 61.5 °F 29.84 in SE 2.3 mph 0.2 mph 56 % 0.00 in
08:04 78.7 °F 61.7 °F 29.84 in SE 1.2 mph 0.4 mph 56 % 0.00 in
08:09 79.0 °F 61.5 °F 29.84 in ENE 1.2 mph 1.6 mph 55 % 0.00 in
08:14 79.3 °F 61.7 °F 29.84 in East 3.5 mph 0.3 mph 55 % 0.00 in
08:19 80.1 °F 63.0 °F 29.84 in South 1.0 mph 0.1 mph 56 % 0.00 in
08:24 80.6 °F 62.4 °F 29.84 in SE 2.3 mph 0.3 mph 54 % 0.00 in
08:29 81.1 °F 62.3 °F 29.84 in SSE 3.5 mph 0.5 mph 53 % 0.00 in
08:34 81.2 °F 63.5 °F 29.84 in SSE 2.3 mph 0.6 mph 55 % 0.00 in
08:39 81.7 °F 64.0 °F 29.84 in SW 2.3 mph 0.6 mph 55 % 0.00 in
08:44 82.1 °F 63.8 °F 29.84 in SW 2.3 mph 0.4 mph 54 % 0.00 in
08:49 82.5 °F 63.6 °F 29.84 in ENE 2.3 mph 0.9 mph 53 % 0.00 in
08:54 82.6 °F 63.2 °F 29.84 in SSE 2.3 mph 0.4 mph 52 % 0.00 in
08:59 83.1 °F 64.2 °F 29.84 in South 2.3 mph 0.8 mph 53 % 0.00 in
09:04 83.4 °F 63.4 °F 29.84 in ESE 2.3 mph 1.4 mph 51 % 0.00 in
09:09 83.7 °F 64.2 °F 29.84 in SSE 3.5 mph   52 % 0.00 in
09:14 84.5 °F 64.4 °F 29.84 in East 3.5 mph 0.3 mph 51 % 0.00 in
09:19 84.8 °F 64.7 °F 29.84 in South 2.3 mph 0.9 mph 51 % 0.00 in
09:24 85.1 °F 64.9 °F 29.84 in East 1.2 mph 0.9 mph 51 % 0.00 in
09:29 85.4 °F 64.6 °F 29.84 in SE 1.2 mph 0.6 mph 50 % 0.00 in
09:34 85.9 °F 64.5 °F 29.84 in SSW 2.3 mph 0.3 mph 49 % 0.00 in
09:39 86.5 °F 64.5 °F 29.83 in SW 3.5 mph 1.0 mph 48 % 0.00 in
09:44 86.9 °F 64.8 °F 29.84 in SE 1.2 mph 0.7 mph 48 % 0.00 in
09:49 87.5 °F 62.9 °F 29.83 in South 3.5 mph 1.6 mph 44 % 0.00 in
09:54 87.8 °F 63.8 °F 29.83 in SSE 1.2 mph   45 % 0.00 in
09:59 88.4 °F 61.0 °F 29.83 in South 2.3 mph 0.9 mph 40 % 0.00 in
10:04 88.9 °F 61.5 °F 29.83 in SSE 3.5 mph 1.0 mph 40 % 0.00 in
10:09 89.2 °F 61.7 °F 29.83 in SE 2.0 mph 0.7 mph 40 % 0.00 in
10:14 89.8 °F 62.3 °F 29.83 in South 3.5 mph 0.8 mph 40 % 0.00 in
10:19 90.3 °F 63.4 °F 29.83 in ESE 2.0 mph 0.5 mph 41 % 0.00 in
10:24 90.5 °F 62.9 °F 29.83 in SSE 2.3 mph 0.5 mph 40 % 0.00 in
10:29 90.5 °F 63.6 °F 29.83 in ESE 2.3 mph 0.5 mph 41 % 0.00 in
10:34 90.9 °F 63.2 °F 29.83 in South 2.3 mph 0.8 mph 40 % 0.00 in
10:39 91.1 °F 62.0 °F 29.83 in SE 1.2 mph 0.3 mph 38 % 0.00 in
10:44 91.3 °F 62.1 °F 29.83 in West 1.2 mph 0.6 mph 38 % 0.00 in
10:49 91.4 °F 62.2 °F 29.83 in South 2.3 mph 0.1 mph 38 % 0.00 in
10:54 91.7 °F 63.2 °F 29.82 in SSW 3.5 mph 0.3 mph 39 % 0.00 in
10:59 91.8 °F 63.3 °F 29.82 in North 1.2 mph 0.2 mph 39 % 0.00 in
11:04 92.1 °F 62.8 °F 29.82 in SSE 1.2 mph 0.1 mph 38 % 0.00 in
11:09 92.7 °F 63.4 °F 29.82 in NW 1.2 mph 0.2 mph 38 % 0.00 in
11:14 92.9 °F 63.6 °F 29.82 in NNE 1.2 mph 0.3 mph 38 % 0.00 in
11:19 92.7 °F 62.6 °F 29.82 in ENE 1.0 mph 0.1 mph 37 % 0.00 in
11:24 92.8 °F 62.7 °F 29.82 in WNW 1.2 mph 1.1 mph 37 % 0.00 in
11:29 92.8 °F 61.9 °F 29.82 in WNW 3.0 mph 0.6 mph 36 % 0.00 in
11:34 93.0 °F 61.3 °F 29.81 in NW 1.0 mph 0.5 mph 35 % 0.00 in
11:39 93.6 °F 60.2 °F 29.81 in North 1.0 mph 0.4 mph 33 % 0.00 in
11:44 93.5 °F 61.7 °F 29.81 in NNW 3.5 mph 0.1 mph 35 % 0.00 in
11:49 93.7 °F 64.3 °F 29.81 in NW 2.3 mph 0.5 mph 38 % 0.00 in
11:54 94.0 °F 60.5 °F 29.81 in South 2.3 mph 0.3 mph 33 % 0.00 in
11:59 94.2 °F 61.5 °F 29.80 in NNW 2.0 mph 0.4 mph 34 % 0.00 in
12:04 94.2 °F 62.4 °F 29.80 in NW 2.0 mph 0.3 mph 35 % 0.00 in
12:09 94.2 °F 58.0 °F 29.80 in West 1.0 mph 1.6 mph 30 % 0.00 in
12:14 94.3 °F 62.4 °F 29.80 in SSE 1.2 mph 0.5 mph 35 % 0.00 in
12:19 94.9 °F 58.6 °F 29.80 in North 2.3 mph 0.7 mph 30 % 0.00 in
12:24 95.5 °F 61.8 °F 29.80 in SE 1.2 mph 0.7 mph 33 % 0.00 in
12:29 95.9 °F 60.4 °F 29.79 in WNW 3.5 mph 0.6 mph 31 % 0.00 in
12:34 96.1 °F 59.7 °F 29.79 in SW 2.3 mph   30 % 0.00 in
12:39 96.2 °F 59.7 °F 29.79 in West 1.2 mph   30 % 0.00 in
12:44 96.5 °F 59.0 °F 29.79 in WSW 2.3 mph 0.5 mph 29 % 0.00 in
12:49 96.8 °F 61.2 °F 29.79 in NW 2.0 mph 0.6 mph 31 % 0.00 in
12:54 96.8 °F 57.3 °F 29.78 in NNW 2.3 mph   27 % 0.00 in
12:59 97.2 °F 61.5 °F 29.79 in SSW 2.3 mph 0.8 mph 31 % 0.00 in
13:04 97.5 °F 61.8 °F 29.79 in SSE 1.2 mph   31 % 0.00 in
13:09 97.7 °F 55.9 °F 29.78 in NNW 3.5 mph 1.4 mph 25 % 0.00 in
13:14 97.7 °F 57.0 °F 29.78 in NW 2.3 mph 0.5 mph 26 % 0.00 in
13:19 98.4 °F 58.7 °F 29.78 in SSE 2.3 mph 0.1 mph 27 % 0.00 in
13:24 99.1 °F 60.3 °F 29.77 in NE 1.2 mph   28 % 0.00 in
13:29 99.7 °F 56.5 °F 29.77 in NNW 3.5 mph 1.2 mph 24 % 0.00 in
13:34 99.9 °F 59.9 °F 29.77 in ESE 2.3 mph 0.2 mph 27 % 0.00 in
13:39 100.1 °F 58.0 °F 29.77 in South 2.3 mph 0.3 mph 25 % 0.00 in
13:44 100.0 °F 55.6 °F 29.76 in SE 1.2 mph 0.5 mph 23 % 0.00 in
13:49 100.4 °F 58.2 °F 29.76 in East 1.2 mph 0.1 mph 25 % 0.00 in
13:54 100.9 °F 56.3 °F 29.76 in WNW 1.2 mph 0.2 mph 23 % 0.00 in
13:59 100.4 °F 57.1 °F 29.76 in NNW 3.5 mph 1.1 mph 24 % 0.00 in
14:04 100.4 °F 57.1 °F 29.75 in NW 2.3 mph 1.9 mph 24 % 0.00 in
14:09 100.1 °F 56.8 °F 29.75 in North 2.3 mph 1.0 mph 24 % 0.00 in
14:14 100.3 °F 57.0 °F 29.75 in NW 3.5 mph 1.4 mph 24 % 0.00 in
14:19 100.2 °F 56.9 °F 29.75 in NW 2.3 mph 1.3 mph 24 % 0.00 in
14:24 100.5 °F 56.0 °F 29.75 in NW 2.3 mph 1.3 mph 23 % 0.00 in
14:29 99.9 °F 56.7 °F 29.74 in NW 3.0 mph 0.9 mph 24 % 0.00 in
14:34 99.2 °F 58.3 °F 29.74 in WNW 2.3 mph 1.4 mph 26 % 0.00 in
14:39 98.5 °F 57.7 °F 29.74 in NW 2.3 mph 0.8 mph 26 % 0.00 in
14:44 98.1 °F 57.4 °F 29.74 in NW 2.3 mph 1.4 mph 26 % 0.00 in
14:49 97.6 °F 58.0 °F 29.73 in West 2.3 mph 0.1 mph 27 % 0.00 in
14:54 97.3 °F 57.7 °F 29.73 in NW 3.5 mph 1.3 mph 27 % 0.00 in
14:59 97.3 °F 56.7 °F 29.73 in NW 1.2 mph 0.1 mph 26 % 0.00 in
15:04 97.4 °F 55.7 °F 29.73 in NW 1.2 mph 0.5 mph 25 % 0.00 in
15:09 97.3 °F 57.7 °F 29.72 in NW 2.3 mph 1.3 mph 27 % 0.00 in
15:14 97.1 °F 55.4 °F 29.72 in NW 1.2 mph 0.3 mph 25 % 0.00 in
15:19 97.0 °F 56.4 °F 29.71 in NW 1.2 mph 0.2 mph 26 % 0.00 in
15:24 96.9 °F 55.3 °F 29.71 in NW 1.2 mph 0.7 mph 25 % 0.00 in
15:29 97.1 °F 56.5 °F 29.71 in NW 2.3 mph 0.8 mph 26 % 0.00 in
15:34 97.4 °F 57.8 °F 29.71 in NW 3.5 mph 1.5 mph 27 % 0.00 in
15:39 97.7 °F 55.9 °F 29.70 in NW 2.3 mph 0.8 mph 25 % 0.00 in
15:44 98.0 °F 59.3 °F 29.70 in NW 2.0 mph 0.3 mph 28 % 0.00 in
15:49 98.0 °F 58.3 °F 29.70 in WSW 1.2 mph 0.9 mph 27 % 0.00 in
15:54 98.0 °F 57.3 °F 29.70 in NNW 2.3 mph 0.7 mph 26 % 0.00 in
15:59 98.0 °F 58.3 °F 29.70 in Calm   0.6 mph 27 % 0.00 in
16:04 98.0 °F 58.3 °F 29.70 in West 1.2 mph 0.1 mph 27 % 0.00 in
16:09 98.2 °F 58.5 °F 29.70 in NW 1.2 mph 0.4 mph 27 % 0.00 in
16:14 98.6 °F 56.7 °F 29.70 in NW 2.3 mph 1.3 mph 25 % 0.00 in
16:19 98.9 °F 56.9 °F 29.70 in WNW 1.2 mph 0.4 mph 25 % 0.00 in
16:24 98.7 °F 58.9 °F 29.69 in Calm   0.2 mph 27 % 0.00 in
16:29 98.4 °F 58.7 °F 29.69 in NW 1.2 mph 1.2 mph 27 % 0.00 in
16:34 98.5 °F 58.8 °F 29.69 in NW 1.2 mph 0.3 mph 27 % 0.00 in
16:39 99.1 °F 58.2 °F 29.69 in West 1.0 mph 0.3 mph 26 % 0.00 in
16:44 99.5 °F 58.5 °F 29.68 in NW 1.2 mph 1.2 mph 26 % 0.00 in
16:49 99.9 °F 57.8 °F 29.68 in WNW 1.2 mph 1.0 mph 25 % 0.00 in
16:54 99.5 °F 57.4 °F 29.68 in Calm   0.2 mph 25 % 0.00 in
16:59 98.7 °F 57.9 °F 29.68 in Calm   0.3 mph 26 % 0.00 in
17:04 97.8 °F 58.2 °F 29.68 in WNW 1.2 mph   27 % 0.00 in
17:09 97.0 °F 58.5 °F 29.68 in Calm     28 % 0.00 in
17:14 96.7 °F 59.2 °F 29.68 in WNW 1.2 mph   29 % 0.00 in
17:19 96.4 °F 59.9 °F 29.68 in Calm     30 % 0.00 in
17:24 96.3 °F 59.8 °F 29.68 in NW 1.2 mph 0.1 mph 30 % 0.00 in
17:29 96.9 °F 60.3 °F 29.68 in NW 1.2 mph 0.5 mph 30 % 0.00 in
17:34 97.6 °F 59.0 °F 29.68 in North 1.2 mph 1.0 mph 28 % 0.00 in
17:39 97.5 °F 61.8 °F 29.68 in WNW 1.2 mph 0.2 mph 31 % 0.00 in
17:44 96.7 °F 63.7 °F 29.68 in West 1.2 mph   34 % 0.00 in
17:49 96.0 °F 63.9 °F 29.68 in NW 1.2 mph   35 % 0.00 in
17:54 95.6 °F 63.6 °F 29.68 in WNW 1.2 mph   35 % 0.00 in
17:59 95.8 °F 63.8 °F 29.68 in Calm     35 % 0.00 in
18:04 96.7 °F 62.9 °F 29.68 in WNW 1.2 mph 0.1 mph 33 % 0.00 in
18:09 97.6 °F 60.0 °F 29.68 in West 1.2 mph 0.4 mph 29 % 0.00 in
18:14 98.2 °F 61.5 °F 29.68 in WSW 1.2 mph 0.1 mph 30 % 0.00 in
18:19 98.5 °F 61.7 °F 29.67 in WNW 1.2 mph   30 % 0.00 in
18:24 98.5 °F 62.6 °F 29.67 in WNW 1.2 mph   31 % 0.00 in
18:29 98.5 °F 63.6 °F 29.67 in West 1.2 mph 0.1 mph 32 % 0.00 in
18:34 98.7 °F 63.7 °F 29.67 in WSW 1.2 mph   32 % 0.00 in
18:39 98.7 °F 61.9 °F 29.67 in Calm   0.1 mph 30 % 0.00 in
18:44 99.1 °F 62.2 °F 29.67 in WSW 1.0 mph 0.2 mph 30 % 0.00 in
18:49 99.4 °F 62.5 °F 29.67 in Calm     30 % 0.00 in
18:54 99.2 °F 62.3 °F 29.67 in WSW 1.0 mph   30 % 0.00 in
18:59 98.5 °F 61.7 °F 29.67 in Calm     30 % 0.00 in
19:04 97.8 °F 62.0 °F 29.67 in Calm     31 % 0.00 in
19:09 96.9 °F 62.2 °F 29.67 in Calm   0.1 mph 32 % 0.00 in
19:14 96.4 °F 62.6 °F 29.68 in WSW 1.2 mph   33 % 0.00 in
19:19 96.3 °F 62.5 °F 29.68 in Calm     33 % 0.00 in
19:24 95.9 °F 62.2 °F 29.68 in Calm     33 % 0.00 in
19:29 95.4 °F 60.9 °F 29.69 in Calm     32 % 0.00 in
19:34 95.0 °F 62.2 °F 29.69 in Calm     34 % 0.00 in
19:39 94.6 °F 61.9 °F 29.69 in Calm     34 % 0.00 in
19:44 94.1 °F 61.4 °F 29.69 in Calm     34 % 0.00 in
19:49 93.7 °F 60.3 °F 29.69 in Calm     33 % 0.00 in
19:54 93.5 °F 59.2 °F 29.69 in Calm     32 % 0.00 in
19:59 93.2 °F 59.8 °F 29.69 in Calm     33 % 0.00 in
20:04 92.9 °F 59.6 °F 29.69 in Calm     33 % 0.00 in
20:09 92.6 °F 61.0 °F 29.69 in Calm     35 % 0.00 in
20:14 92.1 °F 63.6 °F 29.69 in Calm     39 % 0.00 in
20:19 91.4 °F 63.0 °F 29.69 in Calm     39 % 0.00 in
20:24 90.7 °F 63.1 °F 29.69 in Calm     40 % 0.00 in
20:29 90.0 °F 66.4 °F 29.69 in Calm     46 % 0.00 in
20:34 88.7 °F 68.2 °F 29.69 in Calm     51 % 0.00 in
20:39 87.5 °F 67.1 °F 29.69 in Calm     51 % 0.00 in
20:44 87.1 °F 67.3 °F 29.69 in Calm     52 % 0.00 in
20:49 86.9 °F 67.2 °F 29.69 in Calm     52 % 0.00 in
20:54 86.8 °F 67.1 °F 29.69 in Calm     52 % 0.00 in
20:59 86.7 °F 66.4 °F 29.69 in WNW 1.2 mph   51 % 0.00 in
21:04 86.8 °F 65.9 °F 29.69 in Calm     50 % 0.00 in
21:09 87.1 °F 65.0 °F 29.70 in WNW 1.2 mph   48 % 0.00 in
21:14 87.5 °F 64.8 °F 29.70 in Calm     47 % 0.00 in
21:19 87.9 °F 64.5 °F 29.71 in Calm     46 % 0.00 in
21:24 88.1 °F 64.1 °F 29.71 in Calm     45 % 0.00 in
21:29 88.1 °F 65.9 °F 29.71 in Calm     48 % 0.00 in
21:34 87.7 °F 66.8 °F 29.71 in Calm     50 % 0.00 in
21:39 87.2 °F 66.3 °F 29.72 in Calm     50 % 0.00 in
21:44 86.8 °F 66.5 °F 29.72 in Calm     51 % 0.00 in
21:49 86.4 °F 67.2 °F 29.72 in Calm     53 % 0.00 in
21:54 86.0 °F 66.3 °F 29.73 in Calm     52 % 0.00 in
21:59 85.7 °F 67.1 °F 29.73 in Calm     54 % 0.00 in
22:04 85.4 °F 66.3 °F 29.73 in Calm     53 % 0.00 in
22:09 85.3 °F 65.7 °F 29.74 in Calm     52 % 0.00 in
22:14 85.1 °F 66.0 °F 29.74 in Calm     53 % 0.00 in
22:19 84.8 °F 66.3 °F 29.74 in Calm     54 % 0.00 in
22:24 84.1 °F 66.7 °F 29.74 in Calm     56 % 0.00 in
22:29 83.5 °F 67.7 °F 29.74 in Calm     59 % 0.00 in
22:34 82.9 °F 68.1 °F 29.74 in Calm     61 % 0.00 in
22:39 82.4 °F 68.5 °F 29.75 in Calm     63 % 0.00 in
22:44 82.0 °F 68.2 °F 29.75 in Calm     63 % 0.00 in
22:49 81.6 °F 67.3 °F 29.75 in Calm     62 % 0.00 in
22:54 81.5 °F 67.7 °F 29.75 in Calm     63 % 0.00 in
22:59 81.4 °F 67.6 °F 29.75 in Calm     63 % 0.00 in
23:04 81.2 °F 67.4 °F 29.75 in Calm   0.1 mph 63 % 0.00 in
23:09 80.9 °F 67.1 °F 29.75 in Calm     63 % 0.00 in
23:14 80.6 °F 67.3 °F 29.75 in SE 1.2 mph   64 % 0.00 in
23:19 80.3 °F 66.6 °F 29.75 in SE 1.2 mph   63 % 0.00 in
23:24 80.0 °F 66.3 °F 29.75 in SE 1.2 mph 0.2 mph 63 % 0.00 in
23:29 79.8 °F 65.6 °F 29.75 in ESE 1.2 mph   62 % 0.00 in
23:34 79.9 °F 64.8 °F 29.75 in ESE 1.2 mph   60 % 0.00 in
23:39 80.1 °F 65.0 °F 29.76 in SE 1.2 mph   60 % 0.00 in
23:44 79.9 °F 63.8 °F 29.76 in SE 2.3 mph 0.3 mph 58 % 0.00 in
23:49 79.7 °F 63.1 °F 29.76 in Calm   0.1 mph 57 % 0.00 in
23:54 79.5 °F 62.4 °F 29.77 in Calm     56 % 0.00 in
23:59 79.3 °F 61.7 °F 29.77 in ENE 2.3 mph 0.6 mph 55 % 0.00 in
Park Place, Exeter, Tulare County, California, USA
Compliments of Weather Underground - 2.75 mb